Swansboro Country, California
Current Conditions -  °F | °C
As of 12:35 AM on Sunday 23 Nov 2014 (Local Time) from KPVF Reporting Station
Clear Clear  
Wind Chill: 36°   Ceiling: Unl
Heat Index: 43°   Visibility: 10mi
Dew Point: 36°   Wind: 14mph
Humidity: 76%   Direction: 70°ENE
Pressure: 30.24"   Gusts: NA
Location:  38.7308°N, 120.774°W
Report Text: KPVF 230835Z AUTO 07012KT 10SM CLR 06/02 A3024 RMK AO1
Loading
Personal Weather Stations






























Interactive Weather Map New forecast layout! Learn more

10-Day Weather Forecast

Advertisements
Track Severe Weather on mobile